sensor_id;sensor_type;location;lat;lon;timestamp;temperature;humidity
2639;DHT22;1329;51.384;7.122;2022-11-15T00:02:23;12.60;66.60
2639;DHT22;1329;51.384;7.122;2022-11-15T00:04:49;12.60;67.00
2639;DHT22;1329;51.384;7.122;2022-11-15T00:07:16;12.60;67.30
2639;DHT22;1329;51.384;7.122;2022-11-15T00:09:44;12.60;67.50
2639;DHT22;1329;51.384;7.122;2022-11-15T00:12:11;12.70;68.30
2639;DHT22;1329;51.384;7.122;2022-11-15T00:14:38;12.70;68.10
2639;DHT22;1329;51.384;7.122;2022-11-15T00:17:05;12.80;69.00
2639;DHT22;1329;51.384;7.122;2022-11-15T00:19:32;12.80;69.10
2639;DHT22;1329;51.384;7.122;2022-11-15T00:22:00;12.80;69.50
2639;DHT22;1329;51.384;7.122;2022-11-15T00:24:27;12.80;69.80
2639;DHT22;1329;51.384;7.122;2022-11-15T00:26:55;12.80;70.20
2639;DHT22;1329;51.384;7.122;2022-11-15T00:29:22;12.90;71.20
2639;DHT22;1329;51.384;7.122;2022-11-15T00:31:48;12.90;71.20
2639;DHT22;1329;51.384;7.122;2022-11-15T00:34:15;12.90;71.50
2639;DHT22;1329;51.384;7.122;2022-11-15T00:36:43;13.00;71.60
2639;DHT22;1329;51.384;7.122;2022-11-15T00:39:10;13.00;73.10
2639;DHT22;1329;51.384;7.122;2022-11-15T00:41:37;13.00;73.50
2639;DHT22;1329;51.384;7.122;2022-11-15T00:44:05;13.00;72.60
2639;DHT22;1329;51.384;7.122;2022-11-15T00:46:32;13.10;73.90
2639;DHT22;1329;51.384;7.122;2022-11-15T00:48:59;13.10;73.90
2639;DHT22;1329;51.384;7.122;2022-11-15T00:51:25;13.10;74.20
2639;DHT22;1329;51.384;7.122;2022-11-15T00:53:52;13.10;74.20
2639;DHT22;1329;51.384;7.122;2022-11-15T00:56:19;13.20;74.50
2639;DHT22;1329;51.384;7.122;2022-11-15T00:58:46;13.20;75.60
2639;DHT22;1329;51.384;7.122;2022-11-15T01:01:14;13.20;74.30
2639;DHT22;1329;51.384;7.122;2022-11-15T01:03:41;13.20;74.80
2639;DHT22;1329;51.384;7.122;2022-11-15T01:06:09;13.20;74.50
2639;DHT22;1329;51.384;7.122;2022-11-15T01:08:38;13.30;74.50
2639;DHT22;1329;51.384;7.122;2022-11-15T01:11:08;13.30;74.80
2639;DHT22;1329;51.384;7.122;2022-11-15T01:13:38;13.30;75.20
2639;DHT22;1329;51.384;7.122;2022-11-15T01:16:07;13.30;75.10
2639;DHT22;1329;51.384;7.122;2022-11-15T01:18:36;13.30;75.60
2639;DHT22;1329;51.384;7.122;2022-11-15T01:21:07;13.30;76.10
2639;DHT22;1329;51.384;7.122;2022-11-15T01:23:35;13.40;76.60
2639;DHT22;1329;51.384;7.122;2022-11-15T01:26:04;13.40;75.70
2639;DHT22;1329;51.384;7.122;2022-11-15T01:28:34;13.40;75.60
2639;DHT22;1329;51.384;7.122;2022-11-15T01:31:04;13.50;75.40
2639;DHT22;1329;51.384;7.122;2022-11-15T01:33:35;13.50;75.20
2639;DHT22;1329;51.384;7.122;2022-11-15T01:36:04;13.40;75.00
2639;DHT22;1329;51.384;7.122;2022-11-15T01:38:31;13.40;75.00
2639;DHT22;1329;51.384;7.122;2022-11-15T01:40:58;13.50;74.60
2639;DHT22;1329;51.384;7.122;2022-11-15T01:43:27;13.50;74.70
2639;DHT22;1329;51.384;7.122;2022-11-15T01:45:58;13.50;75.00
2639;DHT22;1329;51.384;7.122;2022-11-15T01:48:32;13.50;75.00
2639;DHT22;1329;51.384;7.122;2022-11-15T01:51:04;13.40;74.90
2639;DHT22;1329;51.384;7.122;2022-11-15T01:53:34;13.50;75.20
2639;DHT22;1329;51.384;7.122;2022-11-15T01:56:07;13.50;75.00
2639;DHT22;1329;51.384;7.122;2022-11-15T01:58:36;13.40;75.60
2639;DHT22;1329;51.384;7.122;2022-11-15T02:01:03;13.50;75.60
2639;DHT22;1329;51.384;7.122;2022-11-15T02:03:34;13.50;76.00
2639;DHT22;1329;51.384;7.122;2022-11-15T02:06:06;13.50;77.20
2639;DHT22;1329;51.384;7.122;2022-11-15T02:08:33;13.50;76.90
2639;DHT22;1329;51.384;7.122;2022-11-15T02:10:59;13.50;76.30
2639;DHT22;1329;51.384;7.122;2022-11-15T02:13:27;13.50;76.20
2639;DHT22;1329;51.384;7.122;2022-11-15T02:16:01;13.50;76.40
2639;DHT22;1329;51.384;7.122;2022-11-15T02:18:35;13.50;77.60
2639;DHT22;1329;51.384;7.122;2022-11-15T02:21:13;13.50;77.00
2639;DHT22;1329;51.384;7.122;2022-11-15T02:27:09;13.50;78.20
2639;DHT22;1329;51.384;7.122;2022-11-15T02:30:23;13.50;77.90
2639;DHT22;1329;51.384;7.122;2022-11-15T02:32:54;13.60;77.70
2639;DHT22;1329;51.384;7.122;2022-11-15T02:35:29;13.60;76.40
2639;DHT22;1329;51.384;7.122;2022-11-15T02:38:07;13.50;76.20
2639;DHT22;1329;51.384;7.122;2022-11-15T02:40:46;13.50;76.20
2639;DHT22;1329;51.384;7.122;2022-11-15T02:43:22;13.50;75.90
2639;DHT22;1329;51.384;7.122;2022-11-15T02:46:18;13.40;75.60
2639;DHT22;1329;51.384;7.122;2022-11-15T02:48:48;13.40;75.90
2639;DHT22;1329;51.384;7.122;2022-11-15T02:51:16;13.40;75.40
2639;DHT22;1329;51.384;7.122;2022-11-15T02:53:43;13.30;76.40
2639;DHT22;1329;51.384;7.122;2022-11-15T02:56:11;13.30;77.40
2639;DHT22;1329;51.384;7.122;2022-11-15T02:58:49;13.30;79.50
2639;DHT22;1329;51.384;7.122;2022-11-15T03:01:37;13.30;81.70
2639;DHT22;1329;51.384;7.122;2022-11-15T03:04:16;13.30;83.30
2639;DHT22;1329;51.384;7.122;2022-11-15T03:06:53;13.40;84.40
2639;DHT22;1329;51.384;7.122;2022-11-15T03:09:34;13.40;84.40
2639;DHT22;1329;51.384;7.122;2022-11-15T03:12:08;13.50;85.60
2639;DHT22;1329;51.384;7.122;2022-11-15T03:14:43;13.50;86.10
2639;DHT22;1329;51.384;7.122;2022-11-15T03:17:22;13.50;86.20
2639;DHT22;1329;51.384;7.122;2022-11-15T03:19:52;13.50;86.50
2639;DHT22;1329;51.384;7.122;2022-11-15T03:22:23;13.50;86.40
2639;DHT22;1329;51.384;7.122;2022-11-15T03:24:53;13.50;86.40
2639;DHT22;1329;51.384;7.122;2022-11-15T03:27:25;13.60;87.00
2639;DHT22;1329;51.384;7.122;2022-11-15T03:29:57;13.60;87.00
2639;DHT22;1329;51.384;7.122;2022-11-15T03:32:31;13.60;87.30
2639;DHT22;1329;51.384;7.122;2022-11-15T03:35:04;13.60;87.50
2639;DHT22;1329;51.384;7.122;2022-11-15T03:37:35;13.70;87.10
2639;DHT22;1329;51.384;7.122;2022-11-15T03:40:04;13.70;87.10
2639;DHT22;1329;51.384;7.122;2022-11-15T03:42:34;13.70;86.40
2639;DHT22;1329;51.384;7.122;2022-11-15T03:45:13;13.70;86.40
2639;DHT22;1329;51.384;7.122;2022-11-15T03:47:45;13.70;86.40
2639;DHT22;1329;51.384;7.122;2022-11-15T03:50:18;13.70;86.30
2639;DHT22;1329;51.384;7.122;2022-11-15T03:52:47;13.70;86.00
2639;DHT22;1329;51.384;7.122;2022-11-15T03:55:18;13.70;85.70
2639;DHT22;1329;51.384;7.122;2022-11-15T03:57:48;13.70;86.30
2639;DHT22;1329;51.384;7.122;2022-11-15T04:00:19;13.60;87.50
2639;DHT22;1329;51.384;7.122;2022-11-15T04:02:47;13.70;86.80
2639;DHT22;1329;51.384;7.122;2022-11-15T04:05:14;13.70;87.60
2639;DHT22;1329;51.384;7.122;2022-11-15T04:07:41;13.70;87.70
2639;DHT22;1329;51.384;7.122;2022-11-15T04:10:08;13.70;88.00
2639;DHT22;1329;51.384;7.122;2022-11-15T04:12:38;13.70;88.60
2639;DHT22;1329;51.384;7.122;2022-11-15T04:15:11;13.70;89.00
2639;DHT22;1329;51.384;7.122;2022-11-15T04:17:40;13.70;89.10
2639;DHT22;1329;51.384;7.122;2022-11-15T04:20:11;13.70;89.00
2639;DHT22;1329;51.384;7.122;2022-11-15T04:22:58;13.70;89.30
2639;DHT22;1329;51.384;7.122;2022-11-15T04:25:44;13.80;88.80
2639;DHT22;1329;51.384;7.122;2022-11-15T04:28:11;13.70;88.50
2639;DHT22;1329;51.384;7.122;2022-11-15T04:30:39;13.80;88.70
2639;DHT22;1329;51.384;7.122;2022-11-15T04:33:05;13.80;88.80
2639;DHT22;1329;51.384;7.122;2022-11-15T04:35:34;13.80;88.70
2639;DHT22;1329;51.384;7.122;2022-11-15T04:38:02;13.80;89.00
2639;DHT22;1329;51.384;7.122;2022-11-15T04:40:29;13.80;89.00
2639;DHT22;1329;51.384;7.122;2022-11-15T04:42:57;13.80;89.10
2639;DHT22;1329;51.384;7.122;2022-11-15T04:45:23;13.80;89.30
2639;DHT22;1329;51.384;7.122;2022-11-15T04:47:50;13.80;89.40
2639;DHT22;1329;51.384;7.122;2022-11-15T04:50:17;13.80;89.50
2639;DHT22;1329;51.384;7.122;2022-11-15T04:52:51;13.90;90.20
2639;DHT22;1329;51.384;7.122;2022-11-15T04:55:20;13.80;90.00
2639;DHT22;1329;51.384;7.122;2022-11-15T04:57:47;13.80;89.60
2639;DHT22;1329;51.384;7.122;2022-11-15T05:00:16;13.90;89.60
2639;DHT22;1329;51.384;7.122;2022-11-15T05:02:43;13.90;90.10
2639;DHT22;1329;51.384;7.122;2022-11-15T05:05:28;13.90;90.00
2639;DHT22;1329;51.384;7.122;2022-11-15T05:07:56;13.80;90.00
2639;DHT22;1329;51.384;7.122;2022-11-15T05:10:23;13.90;90.30
2639;DHT22;1329;51.384;7.122;2022-11-15T05:12:49;13.80;90.10
2639;DHT22;1329;51.384;7.122;2022-11-15T05:15:16;13.80;90.30
2639;DHT22;1329;51.384;7.122;2022-11-15T05:17:43;13.80;90.40
2639;DHT22;1329;51.384;7.122;2022-11-15T05:20:10;13.80;90.60
2639;DHT22;1329;51.384;7.122;2022-11-15T05:22:38;13.80;90.90
2639;DHT22;1329;51.384;7.122;2022-11-15T05:25:07;13.80;91.10
2639;DHT22;1329;51.384;7.122;2022-11-15T05:27:35;13.70;91.50
2639;DHT22;1329;51.384;7.122;2022-11-15T05:30:02;13.80;91.50
2639;DHT22;1329;51.384;7.122;2022-11-15T05:32:30;13.80;91.60
2639;DHT22;1329;51.384;7.122;2022-11-15T05:34:57;13.80;91.80
2639;DHT22;1329;51.384;7.122;2022-11-15T05:37:23;13.80;92.00
2639;DHT22;1329;51.384;7.122;2022-11-15T05:39:50;13.80;92.20
2639;DHT22;1329;51.384;7.122;2022-11-15T05:42:18;13.80;92.40
2639;DHT22;1329;51.384;7.122;2022-11-15T05:44:48;13.80;92.60
2639;DHT22;1329;51.384;7.122;2022-11-15T05:47:17;13.80;92.80
2639;DHT22;1329;51.384;7.122;2022-11-15T05:49:47;13.90;92.80
2639;DHT22;1329;51.384;7.122;2022-11-15T05:52:17;13.90;92.80
2639;DHT22;1329;51.384;7.122;2022-11-15T05:54:45;13.90;92.90
2639;DHT22;1329;51.384;7.122;2022-11-15T05:57:12;13.80;92.80
2639;DHT22;1329;51.384;7.122;2022-11-15T05:59:41;13.90;92.90
2639;DHT22;1329;51.384;7.122;2022-11-15T06:02:09;13.90;93.20
2639;DHT22;1329;51.384;7.122;2022-11-15T06:04:36;13.80;93.00
2639;DHT22;1329;51.384;7.122;2022-11-15T06:07:03;13.90;93.20
2639;DHT22;1329;51.384;7.122;2022-11-15T06:09:29;13.80;93.30
2639;DHT22;1329;51.384;7.122;2022-11-15T06:11:56;13.80;93.50
2639;DHT22;1329;51.384;7.122;2022-11-15T06:14:23;13.80;93.70
2639;DHT22;1329;51.384;7.122;2022-11-15T06:16:53;13.80;93.80
2639;DHT22;1329;51.384;7.122;2022-11-15T06:19:23;13.80;94.00
2639;DHT22;1329;51.384;7.122;2022-11-15T06:21:49;13.80;94.00
2639;DHT22;1329;51.384;7.122;2022-11-15T06:24:16;13.80;94.10
2639;DHT22;1329;51.384;7.122;2022-11-15T06:26:43;13.80;94.10
2639;DHT22;1329;51.384;7.122;2022-11-15T06:29:10;13.80;94.10
2639;DHT22;1329;51.384;7.122;2022-11-15T06:31:37;13.90;94.60
2639;DHT22;1329;51.384;7.122;2022-11-15T06:34:05;13.90;94.30
2639;DHT22;1329;51.384;7.122;2022-11-15T06:36:34;13.90;94.30
2639;DHT22;1329;51.384;7.122;2022-11-15T06:39:01;13.90;94.30
2639;DHT22;1329;51.384;7.122;2022-11-15T06:41:27;13.90;94.30
2639;DHT22;1329;51.384;7.122;2022-11-15T06:43:56;13.90;94.20
2639;DHT22;1329;51.384;7.122;2022-11-15T06:46:23;13.90;94.20
2639;DHT22;1329;51.384;7.122;2022-11-15T06:48:51;14.00;94.20
2639;DHT22;1329;51.384;7.122;2022-11-15T06:51:19;14.00;94.10
2639;DHT22;1329;51.384;7.122;2022-11-15T06:53:46;14.00;94.10
2639;DHT22;1329;51.384;7.122;2022-11-15T06:56:13;14.00;94.00
2639;DHT22;1329;51.384;7.122;2022-11-15T06:58:40;14.00;93.90
2639;DHT22;1329;51.384;7.122;2022-11-15T07:01:08;14.00;93.80
2639;DHT22;1329;51.384;7.122;2022-11-15T07:03:36;14.00;93.80
2639;DHT22;1329;51.384;7.122;2022-11-15T07:06:04;14.00;93.70
2639;DHT22;1329;51.384;7.122;2022-11-15T07:08:34;14.00;93.50
2639;DHT22;1329;51.384;7.122;2022-11-15T07:11:03;14.10;93.40
2639;DHT22;1329;51.384;7.122;2022-11-15T07:13:32;14.10;93.00
2639;DHT22;1329;51.384;7.122;2022-11-15T07:16:02;14.00;92.70
2639;DHT22;1329;51.384;7.122;2022-11-15T07:18:29;14.00;92.40
2639;DHT22;1329;51.384;7.122;2022-11-15T07:21:01;14.00;92.30
2639;DHT22;1329;51.384;7.122;2022-11-15T07:23:28;14.00;91.90
2639;DHT22;1329;51.384;7.122;2022-11-15T07:25:57;14.00;91.80
2639;DHT22;1329;51.384;7.122;2022-11-15T07:28:25;14.00;91.40
2639;DHT22;1329;51.384;7.122;2022-11-15T07:30:52;14.00;91.40
2639;DHT22;1329;51.384;7.122;2022-11-15T07:33:19;14.00;91.20
2639;DHT22;1329;51.384;7.122;2022-11-15T07:35:46;14.00;91.00
2639;DHT22;1329;51.384;7.122;2022-11-15T07:38:14;13.90;90.80
2639;DHT22;1329;51.384;7.122;2022-11-15T07:40:45;14.00;90.70
2639;DHT22;1329;51.384;7.122;2022-11-15T07:43:13;13.90;90.60
2639;DHT22;1329;51.384;7.122;2022-11-15T07:45:41;13.90;90.30
2639;DHT22;1329;51.384;7.122;2022-11-15T07:48:08;13.90;90.30
2639;DHT22;1329;51.384;7.122;2022-11-15T07:50:35;13.90;90.30
2639;DHT22;1329;51.384;7.122;2022-11-15T07:53:02;13.80;90.30
2639;DHT22;1329;51.384;7.122;2022-11-15T07:55:29;13.80;90.40
2639;DHT22;1329;51.384;7.122;2022-11-15T07:58:01;13.90;90.50
2639;DHT22;1329;51.384;7.122;2022-11-15T08:00:30;13.90;90.20
2639;DHT22;1329;51.384;7.122;2022-11-15T08:03:04;13.90;90.40
2639;DHT22;1329;51.384;7.122;2022-11-15T08:05:33;13.90;89.90
2639;DHT22;1329;51.384;7.122;2022-11-15T08:08:01;13.90;90.30
2639;DHT22;1329;51.384;7.122;2022-11-15T08:10:28;13.90;89.90
2639;DHT22;1329;51.384;7.122;2022-11-15T08:12:59;14.00;88.90
2639;DHT22;1329;51.384;7.122;2022-11-15T08:15:26;13.90;86.90
2639;DHT22;1329;51.384;7.122;2022-11-15T08:17:56;13.90;87.10
2639;DHT22;1329;51.384;7.122;2022-11-15T08:20:23;13.90;85.20
2639;DHT22;1329;51.384;7.122;2022-11-15T08:22:51;13.90;85.60
2639;DHT22;1329;51.384;7.122;2022-11-15T08:25:18;13.90;84.80
2639;DHT22;1329;51.384;7.122;2022-11-15T08:27:45;13.90;84.80
2639;DHT22;1329;51.384;7.122;2022-11-15T08:30:12;13.90;84.50
2639;DHT22;1329;51.384;7.122;2022-11-15T08:32:41;13.90;83.90
2639;DHT22;1329;51.384;7.122;2022-11-15T08:35:09;13.90;83.80
2639;DHT22;1329;51.384;7.122;2022-11-15T08:37:36;13.90;82.70
2639;DHT22;1329;51.384;7.122;2022-11-15T08:40:04;13.90;83.20
2639;DHT22;1329;51.384;7.122;2022-11-15T08:42:32;13.90;82.50
2639;DHT22;1329;51.384;7.122;2022-11-15T08:44:59;13.90;82.40
2639;DHT22;1329;51.384;7.122;2022-11-15T08:47:25;13.90;81.80
2639;DHT22;1329;51.384;7.122;2022-11-15T08:49:52;13.90;81.20
2639;DHT22;1329;51.384;7.122;2022-11-15T08:52:21;13.90;80.80
2639;DHT22;1329;51.384;7.122;2022-11-15T08:54:48;13.90;79.00
2639;DHT22;1329;51.384;7.122;2022-11-15T08:57:15;13.90;79.30
2639;DHT22;1329;51.384;7.122;2022-11-15T08:59:43;13.90;78.80
2639;DHT22;1329;51.384;7.122;2022-11-15T09:02:11;13.90;78.60
2639;DHT22;1329;51.384;7.122;2022-11-15T09:04:40;13.90;76.60
2639;DHT22;1329;51.384;7.122;2022-11-15T09:07:08;13.90;77.20
2639;DHT22;1329;51.384;7.122;2022-11-15T09:09:38;13.90;77.10
2639;DHT22;1329;51.384;7.122;2022-11-15T09:12:06;13.90;75.20
2639;DHT22;1329;51.384;7.122;2022-11-15T09:14:34;13.90;75.40
2639;DHT22;1329;51.384;7.122;2022-11-15T09:17:01;13.90;75.50
2639;DHT22;1329;51.384;7.122;2022-11-15T09:19:28;14.00;75.30
2639;DHT22;1329;51.384;7.122;2022-11-15T09:21:55;14.00;74.30
2639;DHT22;1329;51.384;7.122;2022-11-15T09:24:22;14.00;73.40
2639;DHT22;1329;51.384;7.122;2022-11-15T09:26:51;14.00;73.00
2639;DHT22;1329;51.384;7.122;2022-11-15T09:29:18;14.10;70.60
2639;DHT22;1329;51.384;7.122;2022-11-15T09:31:45;14.10;71.20
2639;DHT22;1329;51.384;7.122;2022-11-15T09:34:12;14.10;70.30
2639;DHT22;1329;51.384;7.122;2022-11-15T09:36:39;14.10;69.50
2639;DHT22;1329;51.384;7.122;2022-11-15T09:39:05;14.10;68.40
2639;DHT22;1329;51.384;7.122;2022-11-15T09:41:50;14.10;68.10
2639;DHT22;1329;51.384;7.122;2022-11-15T09:44:41;14.10;62.70
2639;DHT22;1329;51.384;7.122;2022-11-15T09:47:38;14.20;62.40
2639;DHT22;1329;51.384;7.122;2022-11-15T09:50:30;14.10;60.00
2639;DHT22;1329;51.384;7.122;2022-11-15T09:53:00;14.10;60.80
2639;DHT22;1329;51.384;7.122;2022-11-15T09:55:34;14.10;64.10
2639;DHT22;1329;51.384;7.122;2022-11-15T09:58:17;14.10;58.20
2639;DHT22;1329;51.384;7.122;2022-11-15T10:00:48;14.20;55.70
2639;DHT22;1329;51.384;7.122;2022-11-15T10:03:23;14.20;58.20
2639;DHT22;1329;51.384;7.122;2022-11-15T10:05:56;14.20;57.70
2639;DHT22;1329;51.384;7.122;2022-11-15T10:08:46;14.20;56.50
2639;DHT22;1329;51.384;7.122;2022-11-15T10:11:20;14.20;53.90
2639;DHT22;1329;51.384;7.122;2022-11-15T10:13:52;14.20;55.70
2639;DHT22;1329;51.384;7.122;2022-11-15T10:16:50;14.20;52.90
2639;DHT22;1329;51.384;7.122;2022-11-15T10:19:34;14.20;48.80
2639;DHT22;1329;51.384;7.122;2022-11-15T10:22:16;14.20;50.60
2639;DHT22;1329;51.384;7.122;2022-11-15T10:24:50;14.20;45.40
2639;DHT22;1329;51.384;7.122;2022-11-15T10:27:20;14.20;48.50
2639;DHT22;1329;51.384;7.122;2022-11-15T10:29:49;14.20;48.70
2639;DHT22;1329;51.384;7.122;2022-11-15T10:32:20;14.20;47.20
2639;DHT22;1329;51.384;7.122;2022-11-15T10:34:48;14.30;47.00
2639;DHT22;1329;51.384;7.122;2022-11-15T10:37:27;14.20;49.30
2639;DHT22;1329;51.384;7.122;2022-11-15T10:40:03;14.30;45.10
2639;DHT22;1329;51.384;7.122;2022-11-15T10:42:31;14.30;44.70
2639;DHT22;1329;51.384;7.122;2022-11-15T10:44:59;14.30;49.40
2639;DHT22;1329;51.384;7.122;2022-11-15T10:47:28;14.20;46.30
2639;DHT22;1329;51.384;7.122;2022-11-15T10:49:58;14.30;45.40
2639;DHT22;1329;51.384;7.122;2022-11-15T10:52:27;14.30;43.30
2639;DHT22;1329;51.384;7.122;2022-11-15T10:54:58;14.30;44.20
2639;DHT22;1329;51.384;7.122;2022-11-15T10:57:30;14.30;41.20
2639;DHT22;1329;51.384;7.122;2022-11-15T11:00:03;14.30;39.30
2639;DHT22;1329;51.384;7.122;2022-11-15T11:02:34;14.40;37.70
2639;DHT22;1329;51.384;7.122;2022-11-15T11:05:04;14.40;36.40
2639;DHT22;1329;51.384;7.122;2022-11-15T11:07:34;14.40;36.70
2639;DHT22;1329;51.384;7.122;2022-11-15T11:10:05;14.40;38.10
2639;DHT22;1329;51.384;7.122;2022-11-15T11:12:44;14.40;34.90
2639;DHT22;1329;51.384;7.122;2022-11-15T11:15:14;14.40;37.60
2639;DHT22;1329;51.384;7.122;2022-11-15T11:17:54;14.40;32.90
2639;DHT22;1329;51.384;7.122;2022-11-15T11:20:29;14.50;28.30
2639;DHT22;1329;51.384;7.122;2022-11-15T11:23:05;14.40;29.70
2639;DHT22;1329;51.384;7.122;2022-11-15T11:25:51;14.50;27.90
2639;DHT22;1329;51.384;7.122;2022-11-15T11:28:36;14.50;27.40
2639;DHT22;1329;51.384;7.122;2022-11-15T11:31:17;14.50;27.00
2639;DHT22;1329;51.384;7.122;2022-11-15T11:33:52;14.60;26.40
2639;DHT22;1329;51.384;7.122;2022-11-15T11:36:27;14.60;26.40
2639;DHT22;1329;51.384;7.122;2022-11-15T11:39:17;14.60;25.60
2639;DHT22;1329;51.384;7.122;2022-11-15T11:41:57;14.60;21.30
2639;DHT22;1329;51.384;7.122;2022-11-15T11:44:44;14.60;21.60
2639;DHT22;1329;51.384;7.122;2022-11-15T11:47:23;14.70;22.20
2639;DHT22;1329;51.384;7.122;2022-11-15T11:49:52;14.70;18.90
2639;DHT22;1329;51.384;7.122;2022-11-15T11:52:24;14.70;22.00
2639;DHT22;1329;51.384;7.122;2022-11-15T11:54:59;14.70;19.10
2639;DHT22;1329;51.384;7.122;2022-11-15T11:57:34;14.80;16.20
2639;DHT22;1329;51.384;7.122;2022-11-15T12:00:15;14.80;14.50
2639;DHT22;1329;51.384;7.122;2022-11-15T12:02:50;14.80;11.60
2639;DHT22;1329;51.384;7.122;2022-11-15T12:05:30;14.80;13.90
2639;DHT22;1329;51.384;7.122;2022-11-15T12:08:16;14.80;15.00
2639;DHT22;1329;51.384;7.122;2022-11-15T12:10:53;14.80;11.50
2639;DHT22;1329;51.384;7.122;2022-11-15T12:13:26;14.90;12.10
2639;DHT22;1329;51.384;7.122;2022-11-15T12:16:05;14.90;13.10
2639;DHT22;1329;51.384;7.122;2022-11-15T12:18:36;14.90;10.30
2639;DHT22;1329;51.384;7.122;2022-11-15T12:21:08;14.90;12.00
2639;DHT22;1329;51.384;7.122;2022-11-15T12:23:44;15.00;10.00
2639;DHT22;1329;51.384;7.122;2022-11-15T12:26:18;15.00;9.80
2639;DHT22;1329;51.384;7.122;2022-11-15T12:28:50;15.00;8.40
2639;DHT22;1329;51.384;7.122;2022-11-15T12:31:23;15.00;9.30
2639;DHT22;1329;51.384;7.122;2022-11-15T12:33:55;15.00;8.20
2639;DHT22;1329;51.384;7.122;2022-11-15T12:36:38;15.10;7.60
2639;DHT22;1329;51.384;7.122;2022-11-15T12:39:06;15.10;6.20
2639;DHT22;1329;51.384;7.122;2022-11-15T12:41:35;15.10;11.30
2639;DHT22;1329;51.384;7.122;2022-11-15T12:44:04;15.10;10.10
2639;DHT22;1329;51.384;7.122;2022-11-15T12:47:00;15.10;10.40
2639;DHT22;1329;51.384;7.122;2022-11-15T12:49:47;15.10;6.20
2639;DHT22;1329;51.384;7.122;2022-11-15T12:52:14;15.10;3.40
2639;DHT22;1329;51.384;7.122;2022-11-15T12:54:53;15.10;9.50
2639;DHT22;1329;51.384;7.122;2022-11-15T12:57:35;15.10;5.50
2639;DHT22;1329;51.384;7.122;2022-11-15T13:03:23;15.20;4.80
2639;DHT22;1329;51.384;7.122;2022-11-15T13:06:06;15.20;5.40
2639;DHT22;1329;51.384;7.122;2022-11-15T13:08:40;15.20;6.30
2639;DHT22;1329;51.384;7.122;2022-11-15T13:11:48;15.20;8.20
2639;DHT22;1329;51.384;7.122;2022-11-15T13:14:37;15.20;5.80
2639;DHT22;1329;51.384;7.122;2022-11-15T13:17:31;15.30;5.90
2639;DHT22;1329;51.384;7.122;2022-11-15T13:20:17;15.30;6.40
2639;DHT22;1329;51.384;7.122;2022-11-15T13:22:52;15.30;7.40
2639;DHT22;1329;51.384;7.122;2022-11-15T13:25:57;15.30;7.30
2639;DHT22;1329;51.384;7.122;2022-11-15T13:28:33;15.40;5.10
2639;DHT22;1329;51.384;7.122;2022-11-15T13:31:02;15.40;7.40
2639;DHT22;1329;51.384;7.122;2022-11-15T13:33:33;15.40;7.50
2639;DHT22;1329;51.384;7.122;2022-11-15T13:36:05;15.50;7.00
2639;DHT22;1329;51.384;7.122;2022-11-15T13:38:37;15.50;5.60
2639;DHT22;1329;51.384;7.122;2022-11-15T13:41:17;15.50;4.80
2639;DHT22;1329;51.384;7.122;2022-11-15T13:43:46;15.50;4.90
2639;DHT22;1329;51.384;7.122;2022-11-15T13:46:16;15.50;6.60
2639;DHT22;1329;51.384;7.122;2022-11-15T13:48:45;15.50;5.30
2639;DHT22;1329;51.384;7.122;2022-11-15T13:51:18;15.50;5.60
2639;DHT22;1329;51.384;7.122;2022-11-15T13:53:55;15.50;4.20
2639;DHT22;1329;51.384;7.122;2022-11-15T13:56:26;15.50;3.60
2639;DHT22;1329;51.384;7.122;2022-11-15T13:58:54;15.50;6.10
2639;DHT22;1329;51.384;7.122;2022-11-15T14:01:21;15.50;7.00
2639;DHT22;1329;51.384;7.122;2022-11-15T14:03:57;15.50;6.10
2639;DHT22;1329;51.384;7.122;2022-11-15T14:06:28;15.50;3.80
2639;DHT22;1329;51.384;7.122;2022-11-15T14:09:15;15.50;4.80
2639;DHT22;1329;51.384;7.122;2022-11-15T14:11:52;15.50;4.30
2639;DHT22;1329;51.384;7.122;2022-11-15T14:14:21;15.50;6.90
2639;DHT22;1329;51.384;7.122;2022-11-15T14:16:50;15.50;7.80
2639;DHT22;1329;51.384;7.122;2022-11-15T14:19:37;15.50;6.50
2639;DHT22;1329;51.384;7.122;2022-11-15T14:22:18;15.50;4.70
2639;DHT22;1329;51.384;7.122;2022-11-15T14:25:07;15.50;6.40
2639;DHT22;1329;51.384;7.122;2022-11-15T14:27:42;15.50;6.10
2639;DHT22;1329;51.384;7.122;2022-11-15T14:30:13;15.40;7.80
2639;DHT22;1329;51.384;7.122;2022-11-15T14:32:44;15.50;6.70
2639;DHT22;1329;51.384;7.122;2022-11-15T14:35:17;15.40;6.40
2639;DHT22;1329;51.384;7.122;2022-11-15T14:37:47;15.40;8.00
2639;DHT22;1329;51.384;7.122;2022-11-15T14:40:17;15.40;8.50
2639;DHT22;1329;51.384;7.122;2022-11-15T14:42:46;15.40;7.50
2639;DHT22;1329;51.384;7.122;2022-11-15T14:45:16;15.40;8.30
2639;DHT22;1329;51.384;7.122;2022-11-15T14:47:44;15.30;8.50
2639;DHT22;1329;51.384;7.122;2022-11-15T14:50:12;15.40;8.80
2639;DHT22;1329;51.384;7.122;2022-11-15T14:52:40;15.30;8.50
2639;DHT22;1329;51.384;7.122;2022-11-15T14:55:17;15.30;8.80
2639;DHT22;1329;51.384;7.122;2022-11-15T14:57:46;15.30;7.10
2639;DHT22;1329;51.384;7.122;2022-11-15T15:00:14;15.30;8.80
2639;DHT22;1329;51.384;7.122;2022-11-15T15:02:43;15.30;8.80
2639;DHT22;1329;51.384;7.122;2022-11-15T15:05:14;15.20;8.60
2639;DHT22;1329;51.384;7.122;2022-11-15T15:07:42;15.20;7.90
2639;DHT22;1329;51.384;7.122;2022-11-15T15:10:10;15.20;9.00
2639;DHT22;1329;51.384;7.122;2022-11-15T15:12:39;15.20;8.90
2639;DHT22;1329;51.384;7.122;2022-11-15T15:15:12;15.20;8.70
2639;DHT22;1329;51.384;7.122;2022-11-15T15:17:40;15.20;7.80
2639;DHT22;1329;51.384;7.122;2022-11-15T15:20:08;15.10;9.10
2639;DHT22;1329;51.384;7.122;2022-11-15T15:22:36;15.10;9.00
2639;DHT22;1329;51.384;7.122;2022-11-15T15:25:18;15.10;8.90
2639;DHT22;1329;51.384;7.122;2022-11-15T15:27:49;15.10;7.50
2639;DHT22;1329;51.384;7.122;2022-11-15T15:30:16;15.00;8.40
2639;DHT22;1329;51.384;7.122;2022-11-15T15:32:43;15.00;9.20
2639;DHT22;1329;51.384;7.122;2022-11-15T15:35:12;15.00;9.40
2639;DHT22;1329;51.384;7.122;2022-11-15T15:37:39;15.00;9.30
2639;DHT22;1329;51.384;7.122;2022-11-15T15:40:12;15.00;9.60
2639;DHT22;1329;51.384;7.122;2022-11-15T15:42:41;15.00;8.50
2639;DHT22;1329;51.384;7.122;2022-11-15T15:45:10;15.00;9.90
2639;DHT22;1329;51.384;7.122;2022-11-15T15:47:38;15.00;9.20
2639;DHT22;1329;51.384;7.122;2022-11-15T15:50:14;15.00;9.70
2639;DHT22;1329;51.384;7.122;2022-11-15T15:52:47;15.00;8.80
2639;DHT22;1329;51.384;7.122;2022-11-15T15:55:14;15.00;10.00
2639;DHT22;1329;51.384;7.122;2022-11-15T15:57:41;14.90;9.80
2639;DHT22;1329;51.384;7.122;2022-11-15T16:00:11;14.90;9.80
2639;DHT22;1329;51.384;7.122;2022-11-15T16:02:38;14.90;9.30
2639;DHT22;1329;51.384;7.122;2022-11-15T16:05:06;14.90;11.00
2639;DHT22;1329;51.384;7.122;2022-11-15T16:07:33;14.90;10.30
2639;DHT22;1329;51.384;7.122;2022-11-15T16:10:00;14.90;10.20
2639;DHT22;1329;51.384;7.122;2022-11-15T16:12:28;14.90;10.30
2639;DHT22;1329;51.384;7.122;2022-11-15T16:14:55;14.90;10.20
2639;DHT22;1329;51.384;7.122;2022-11-15T16:17:25;14.90;10.60
2639;DHT22;1329;51.384;7.122;2022-11-15T16:19:53;14.90;10.40
2639;DHT22;1329;51.384;7.122;2022-11-15T16:22:20;14.90;10.80
2639;DHT22;1329;51.384;7.122;2022-11-15T16:24:47;14.90;10.80
2639;DHT22;1329;51.384;7.122;2022-11-15T16:27:14;14.90;11.00
2639;DHT22;1329;51.384;7.122;2022-11-15T16:29:42;14.90;11.00
2639;DHT22;1329;51.384;7.122;2022-11-15T16:32:09;14.90;11.10
2639;DHT22;1329;51.384;7.122;2022-11-15T16:34:38;14.90;11.20
2639;DHT22;1329;51.384;7.122;2022-11-15T16:37:05;14.90;10.90
2639;DHT22;1329;51.384;7.122;2022-11-15T16:39:35;14.90;11.30